Time,TemperatureF,DewpointF,PressureIn,WindDirection,WindDirectionDegrees,WindSpeedMPH,WindSpeedGustMPH,Humidity,HourlyPrecipIn,Conditions,Clouds,dailyrainin,SoftwareType,DateUTC
2013-05-27 00:32:00,58.0,-99.9,-100.00,WSW,249,7.0,10.0,-999,-99.99,,,-99.99,,2013-05-27 07:32:00,
2013-05-27 00:42:00,58.0,-99.9,-100.00,WSW,249,7.0,10.0,-999,-99.99,,,-99.99,,2013-05-27 07:42:00,
2013-05-27 00:53:00,58.0,-99.9,-100.00,WSW,249,7.0,10.0,-999,-99.99,,,-99.99,,2013-05-27 07:53:00,
2013-05-27 01:33:00,58.0,-99.9,-100.00,NW,317,2.0,4.0,-999,-99.99,,,-99.99,,2013-05-27 08:33:00,
2013-05-27 01:42:00,58.0,-99.9,-100.00,NW,317,2.0,4.0,-999,-99.99,,,-99.99,,2013-05-27 08:42:00,
2013-05-27 01:52:00,54.0,-99.9,-100.00,WNW,283,4.0,4.0,-999,-99.99,,,-99.99,,2013-05-27 08:52:00,
2013-05-27 02:02:00,54.0,-99.9,-100.00,WNW,283,4.0,4.0,-999,-99.99,,,-99.99,,2013-05-27 09:02:00,
2013-05-27 02:33:00,52.0,-99.9,-100.00,WSW,244,2.0,4.0,-999,-99.99,,,-99.99,,2013-05-27 09:33:00,
2013-05-27 02:43:00,52.0,-99.9,-100.00,WSW,244,2.0,4.0,-999,-99.99,,,-99.99,,2013-05-27 09:43:00,
2013-05-27 02:53:00,54.0,-99.9,-100.00,SW,221,4.0,4.0,-999,-99.99,,,-99.99,,2013-05-27 09:53:00,
2013-05-27 03:03:00,54.0,-99.9,-100.00,SW,221,4.0,4.0,-999,-99.99,,,-99.99,,2013-05-27 10:03:00,
2013-05-27 03:10:00,53.0,-99.9,-100.00,West,260,4.0,6.0,-999,-99.99,,,-99.99,,2013-05-27 10:10:00,
2013-05-27 03:32:00,51.0,-99.9,-100.00,WSW,255,2.0,6.0,-999,-99.99,,,-99.99,,2013-05-27 10:32:00,
2013-05-27 03:42:00,51.0,-99.9,-100.00,WSW,255,2.0,6.0,-999,-99.99,,,-99.99,,2013-05-27 10:42:00,
2013-05-27 03:53:00,53.0,-99.9,-100.00,West,260,4.0,6.0,-999,-99.99,,,-99.99,,2013-05-27 10:53:00,
2013-05-27 04:02:00,53.0,-99.9,-100.00,West,260,4.0,6.0,-999,-99.99,,,-99.99,,2013-05-27 11:02:00,
2013-05-27 04:32:00,51.0,-99.9,-100.00,WSW,256,3.0,4.0,-999,-99.99,,,-99.99,,2013-05-27 11:32:00,
2013-05-27 04:42:00,51.0,-99.9,-100.00,WSW,256,3.0,4.0,-999,-99.99,,,-99.99,,2013-05-27 11:42:00,
2013-05-27 04:52:00,51.0,-99.9,-100.00,WSW,256,3.0,4.0,-999,-99.99,,,-99.99,,2013-05-27 11:52:00,
2013-05-27 05:02:00,52.0,-99.9,-100.00,SW,236,3.0,5.0,-999,-99.99,,,-99.99,,2013-05-27 12:02:00,
2013-05-27 05:12:00,52.0,-99.9,-100.00,SW,236,3.0,5.0,-999,-99.99,,,-99.99,,2013-05-27 12:12:00,
2013-05-27 05:20:00,53.0,-99.9,-100.00,WSW,252,1.0,1.0,-999,-99.99,,,-99.99,,2013-05-27 12:20:00,
2013-05-27 05:22:00,51.0,-99.9,-100.00,WNW,285,2.0,3.0,-999,-99.99,,,-99.99,,2013-05-27 12:22:00,
2013-05-27 05:32:00,51.0,-99.9,-100.00,NNE,22,2.0,2.0,-999,-99.99,,,-99.99,,2013-05-27 12:32:00,
2013-05-27 05:42:00,51.0,-99.9,-100.00,NNE,22,2.0,2.0,-999,-99.99,,,-99.99,,2013-05-27 12:42:00,
2013-05-27 05:52:00,51.0,-99.9,-100.00,NNE,22,2.0,2.0,-999,-99.99,,,-99.99,,2013-05-27 12:52:00,
2013-05-27 06:02:00,53.0,-99.9,-100.00,WSW,252,1.0,1.0,-999,-99.99,,,-99.99,,2013-05-27 13:02:00,
2013-05-27 06:11:00,53.0,-99.9,-100.00,WSW,252,1.0,1.0,-999,-99.99,,,-99.99,,2013-05-27 13:11:00,
2013-05-27 06:32:00,52.0,-99.9,-100.00,NW,312,0.0,1.0,-999,-99.99,,,-99.99,,2013-05-27 13:32:00,
2013-05-27 06:42:00,52.0,-99.9,-100.00,NW,312,0.0,1.0,-999,-99.99,,,-99.99,,2013-05-27 13:42:00,
2013-05-27 06:53:00,52.0,-99.9,-100.00,NW,312,0.0,1.0,-999,-99.99,,,-99.99,,2013-05-27 13:53:00,
2013-05-27 07:32:00,51.0,-99.9,-100.00,WSW,257,1.0,2.0,-999,-99.99,,,-99.99,,2013-05-27 14:32:00,
2013-05-27 07:42:00,51.0,-99.9,-100.00,WSW,257,1.0,2.0,-999,-99.99,,,-99.99,,2013-05-27 14:42:00,
2013-05-27 07:52:00,51.0,-99.9,-100.00,WSW,257,1.0,2.0,-999,-99.99,,,-99.99,,2013-05-27 14:52:00,
2013-05-27 08:33:00,54.0,-99.9,-100.00,ENE,77,0.0,0.0,-999,-99.99,,,-99.99,,2013-05-27 15:33:00,
2013-05-27 08:43:00,54.0,-99.9,-100.00,ENE,77,0.0,0.0,-999,-99.99,,,-99.99,,2013-05-27 15:43:00,
2013-05-27 08:53:00,54.0,-99.9,-100.00,ENE,77,0.0,0.0,-999,-99.99,,,-99.99,,2013-05-27 15:53:00,
2013-05-27 09:03:00,53.0,-99.9,-100.00,ESE,109,0.0,3.0,-999,-99.99,,,-99.99,,2013-05-27 16:03:00,
2013-05-27 09:12:00,53.0,-99.9,-100.00,ESE,109,0.0,3.0,-999,-99.99,,,-99.99,,2013-05-27 16:12:00,
2013-05-27 09:33:00,52.0,-99.9,-100.00,NNE,28,1.0,1.0,-999,-99.99,,,-99.99,,2013-05-27 16:33:00,
2013-05-27 09:42:00,52.0,-99.9,-100.00,NNE,28,1.0,1.0,-999,-99.99,,,-99.99,,2013-05-27 16:42:00,
2013-05-27 09:53:00,52.0,-99.9,-100.00,NNE,28,1.0,1.0,-999,-99.99,,,-99.99,,2013-05-27 16:53:00,
2013-05-27 10:32:00,52.0,-99.9,-100.00,NE,41,2.0,4.0,-999,-99.99,,,-99.99,,2013-05-27 17:32:00,
2013-05-27 10:43:00,52.0,-99.9,-100.00,NE,41,2.0,4.0,-999,-99.99,,,-99.99,,2013-05-27 17:43:00,
2013-05-27 10:52:00,52.0,-99.9,-100.00,NE,41,2.0,4.0,-999,-99.99,,,-99.99,,2013-05-27 17:52:00,
2013-05-27 11:32:00,54.0,-99.9,-100.00,NNE,15,0.0,3.0,-999,-99.99,,,-99.99,,2013-05-27 18:32:00,
2013-05-27 11:42:00,54.0,-99.9,-100.00,NNE,15,0.0,3.0,-999,-99.99,,,-99.99,,2013-05-27 18:42:00,
2013-05-27 11:52:00,54.0,-99.9,-100.00,NNE,15,0.0,3.0,-999,-99.99,,,-99.99,,2013-05-27 18:52:00,
2013-05-27 12:32:00,55.0,-99.9,-100.00,NE,38,2.0,6.0,-999,-99.99,,,-99.99,,2013-05-27 19:32:00,
2013-05-27 12:42:00,55.0,-99.9,-100.00,NE,38,2.0,6.0,-999,-99.99,,,-99.99,,2013-05-27 19:42:00,
2013-05-27 12:52:00,55.0,-99.9,-100.00,NE,38,2.0,6.0,-999,-99.99,,,-99.99,,2013-05-27 19:52:00,
2013-05-27 13:32:00,56.0,-99.9,-100.00,NE,41,0.0,4.0,-999,-99.99,,,-99.99,,2013-05-27 20:32:00,
2013-05-27 13:42:00,56.0,-99.9,-100.00,NE,41,0.0,4.0,-999,-99.99,,,-99.99,,2013-05-27 20:42:00,
2013-05-27 13:53:00,56.0,-99.9,-100.00,NE,41,0.0,4.0,-999,-99.99,,,-99.99,,2013-05-27 20:53:00,
2013-05-27 14:33:00,59.0,-99.9,-100.00,East,89,1.0,4.0,-999,-99.99,,,-99.99,,2013-05-27 21:33:00,
2013-05-27 14:43:00,59.0,-99.9,-100.00,East,89,1.0,4.0,-999,-99.99,,,-99.99,,2013-05-27 21:43:00,
2013-05-27 14:53:00,59.0,-99.9,-100.00,East,89,1.0,4.0,-999,-99.99,,,-99.99,,2013-05-27 21:53:00,
2013-05-27 15:10:00,58.0,-99.9,-100.00,WSW,252,2.0,4.0,-999,-99.99,,,-99.99,,2013-05-27 22:10:00,
2013-05-27 15:33:00,58.0,-99.9,-100.00,WNW,283,1.0,2.0,-999,-99.99,,,-99.99,,2013-05-27 22:33:00,
2013-05-27 15:42:00,58.0,-99.9,-100.00,WNW,283,1.0,2.0,-999,-99.99,,,-99.99,,2013-05-27 22:42:00,
2013-05-27 15:53:00,58.0,-99.9,-100.00,WSW,252,2.0,4.0,-999,-99.99,,,-99.99,,2013-05-27 22:53:00,
2013-05-27 16:02:00,58.0,-99.9,-100.00,WSW,252,2.0,4.0,-999,-99.99,,,-99.99,,2013-05-27 23:02:00,
2013-05-27 16:22:00,58.0,-99.9,-100.00,West,260,3.0,5.0,-999,-99.99,,,-99.99,,2013-05-27 23:22:00,
2013-05-27 16:32:00,59.0,-99.9,-100.00,WSW,257,3.0,3.0,-999,-99.99,,,-99.99,,2013-05-27 23:32:00,
2013-05-27 16:42:00,59.0,-99.9,-100.00,WSW,257,3.0,3.0,-999,-99.99,,,-99.99,,2013-05-27 23:42:00,
2013-05-27 16:52:00,59.0,-99.9,-100.00,WSW,257,3.0,3.0,-999,-99.99,,,-99.99,,2013-05-27 23:52:00,
2013-05-27 17:10:00,58.0,-99.9,-100.00,NW,304,4.0,6.0,-999,-99.99,,,-99.99,,2013-05-28 00:10:00,
2013-05-27 17:52:00,58.0,-99.9,-100.00,NW,304,4.0,6.0,-999,-99.99,,,-99.99,,2013-05-28 00:52:00,
2013-05-27 18:01:00,58.0,-99.9,-100.00,NW,304,4.0,6.0,-999,-99.99,,,-99.99,,2013-05-28 01:01:00,
2013-05-27 18:22:00,57.0,-99.9,-100.00,NNW,330,4.0,4.0,-999,-99.99,,,-99.99,,2013-05-28 01:22:00,
2013-05-27 18:32:00,59.0,-99.9,-100.00,NNW,338,1.0,4.0,-999,-99.99,,,-99.99,,2013-05-28 01:32:00,
2013-05-27 18:42:00,59.0,-99.9,-100.00,NNW,338,1.0,4.0,-999,-99.99,,,-99.99,,2013-05-28 01:42:00,
2013-05-27 18:52:00,59.0,-99.9,-100.00,NNW,338,1.0,4.0,-999,-99.99,,,-99.99,,2013-05-28 01:52:00,
2013-05-27 19:32:00,56.0,-99.9,-100.00,West,268,3.0,4.0,-999,-99.99,,,-99.99,,2013-05-28 02:32:00,
2013-05-27 19:42:00,56.0,-99.9,-100.00,West,268,3.0,4.0,-999,-99.99,,,-99.99,,2013-05-28 02:42:00,
2013-05-27 19:52:00,56.0,-99.9,-100.00,West,268,3.0,4.0,-999,-99.99,,,-99.99,,2013-05-28 02:52:00,
2013-05-27 20:20:00,56.0,-99.9,-100.00,South,170,1.0,4.0,-999,-99.99,,,-99.99,,2013-05-28 03:20:00,
2013-05-27 20:33:00,57.0,-99.9,-100.00,WNW,283,2.0,4.0,-999,-99.99,,,-99.99,,2013-05-28 03:33:00,
2013-05-27 20:43:00,57.0,-99.9,-100.00,WNW,283,2.0,4.0,-999,-99.99,,,-99.99,,2013-05-28 03:43:00,
2013-05-27 20:53:00,57.0,-99.9,-100.00,WNW,283,2.0,4.0,-999,-99.99,,,-99.99,,2013-05-28 03:53:00,
2013-05-27 21:03:00,56.0,-99.9,-100.00,South,170,1.0,4.0,-999,-99.99,,,-99.99,,2013-05-28 04:03:00,
2013-05-27 21:13:00,56.0,-99.9,-100.00,South,170,1.0,4.0,-999,-99.99,,,-99.99,,2013-05-28 04:13:00,
2013-05-27 21:33:00,57.0,-99.9,-100.00,West,266,2.0,3.0,-999,-99.99,,,-99.99,,2013-05-28 04:33:00,
2013-05-27 21:43:00,57.0,-99.9,-100.00,West,266,2.0,3.0,-999,-99.99,,,-99.99,,2013-05-28 04:43:00,
2013-05-27 21:53:00,57.0,-99.9,-100.00,West,266,2.0,3.0,-999,-99.99,,,-99.99,,2013-05-28 04:53:00,
2013-05-27 22:33:00,54.0,-99.9,-100.00,South,185,1.0,2.0,-999,-99.99,,,-99.99,,2013-05-28 05:33:00,
2013-05-27 22:43:00,54.0,-99.9,-100.00,South,185,1.0,2.0,-999,-99.99,,,-99.99,,2013-05-28 05:43:00,
2013-05-27 22:53:00,57.0,-99.9,-100.00,WSW,252,2.0,4.0,-999,-99.99,,,-99.99,,2013-05-28 05:53:00,
2013-05-27 23:02:00,57.0,-99.9,-100.00,WSW,252,2.0,4.0,-999,-99.99,,,-99.99,,2013-05-28 06:02:00,
2013-05-27 23:32:00,54.0,-99.9,-100.00,WSW,238,5.0,9.0,-999,-99.99,,,-99.99,,2013-05-28 06:32:00,
2013-05-27 23:42:00,54.0,-99.9,-100.00,WSW,238,5.0,9.0,-999,-99.99,,,-99.99,,2013-05-28 06:42:00,
2013-05-27 23:52:00,54.0,-99.9,-100.00,WSW,238,5.0,9.0,-999,-99.99,,,-99.99,,2013-05-28 06:52:00,